Nautilus Survey — LIXR — position and weather

sailwx.info

Track history (hours):
 
Tides and Currents Weather Stations Pressure Air Temp Water Temp Dewpoint Dewpoint Depression Visibility Wind Speed Wind Dir Waves Ship Positions

Nautilus Survey

Last reported at 2014-Oct-31 15:22 UTC. Time now 2014-Nov-01 00:27 UTC.
Position N 63°45' E 009°22'.

Length 22 m; draft 2 m.

Type: Dredging. MMSI: 259464000.

Date/timePositionNaut miles runAvg speedWind from/ knotsBaromVisibWave heightAir tempDewpointWater temp
2014-Oct-31 15:22N 63°45' E 009°22'78 8.9
2014-Oct-31 06:33N 64°48' E 011°07'4 4.4
2014-Oct-31 05:33N 64°52' E 011°14'0 0.0
2014-Oct-31 04:33N 64°52' E 011°14'0 0.0
2014-Oct-31 03:33N 64°52' E 011°14'0 0.0
2014-Oct-31 02:33N 64°52' E 011°14'0 0.0
2014-Oct-31 01:33N 64°52' E 011°14'0 0.0
2014-Oct-31 00:33N 64°52' E 011°14'0 0.0
2014-Oct-30 23:33N 64°52' E 011°14'0 0.0
2014-Oct-30 22:33N 64°52' E 011°14'0 0.0
2014-Oct-30 21:33N 64°52' E 011°14'0 0.0
2014-Oct-30 20:33N 64°52' E 011°14'0 0.0
2014-Oct-30 19:33N 64°52' E 011°14'0 0.0
2014-Oct-30 18:33N 64°52' E 011°14'0 0.0
2014-Oct-30 17:33N 64°52' E 011°14'0 0.0
2014-Oct-30 16:33N 64°52' E 011°14'0 0.0
2014-Oct-30 15:33N 64°52' E 011°14'0 0.0
2014-Oct-30 14:33N 64°52' E 011°14'0 0.0
2014-Oct-30 13:33N 64°52' E 011°14'0 0.0
2014-Oct-30 12:33N 64°52' E 011°14'0 0.1
2014-Oct-30 11:34N 64°51' E 011°14'8 8.1
2014-Oct-30 10:33N 64°57' E 011°28'8 8.2
2014-Oct-30 09:33N 65°02' E 011°43'11 8.8
2014-Oct-30 08:19N 65°12' E 011°53'71 3.0
2014-Oct-29 08:25N 66°18' E 012°56'8 9.0
2014-Oct-29 07:33N 66°26' E 012°59'6 0.3
2014-Oct-28 09:25N 66°32' E 012°58'8 9.6
2014-Oct-28 08:33N 66°23' E 012°58'11 0.8
2014-Oct-27 18:17N 66°14' E 012°42'0 0.0
2014-Oct-27 17:33N 66°14' E 012°42'3 0.1
2014-Oct-26 12:07N 66°12' E 012°39'5 8.5
2014-Oct-26 11:32N 66°17' E 012°39'8 7.9
2014-Oct-26 10:33N 66°24' E 012°49'9 7.8
2014-Oct-26 09:26N 66°32' E 012°55'33 2.2
2014-Oct-25 18:29N 67°00' E 013°40'8 8.9
2014-Oct-25 17:33N 67°05' E 013°57'9 8.7
2014-Oct-25 16:33N 67°13' E 014°08'9 8.6
2014-Oct-25 15:33N 67°20' E 014°20'9 8.6
2014-Oct-25 14:33N 67°27' E 014°32'  
2014-Oct-22 00:33N 67°29' E 014°36'9 9.1
2014-Oct-21 23:33N 67°21' E 014°24'9 9.4
2014-Oct-21 22:33N 67°13' E 014°11'47 9.0
2014-Oct-21 17:21N 66°36' E 012°59'7 9.1
2014-Oct-21 16:32N 66°29' E 012°50'7 6.9
2014-Oct-21 15:34N 66°23' E 012°44'  
Track history (hours):
 
Tides and Currents Weather Stations Pressure Air Temp Water Temp Dewpoint Dewpoint Depression Visibility Wind Speed Wind Dir Waves Ship Positions

Nautilus Survey

Last reported at 2014-Oct-31 15:22 UTC. Time now 2014-Nov-01 00:27 UTC.
Position N 63°45' E 009°22'.

Length 22 m; draft 2 m.

Type: Dredging. MMSI: 259464000.

Date/timePositionNaut miles runAvg speedWind from/ knotsBaromVisibWave heightAir tempDewpointWater temp
2014-Oct-31 15:22N 63°45' E 009°22'78 8.9
2014-Oct-31 06:33N 64°48' E 011°07'4 4.4
2014-Oct-31 05:33N 64°52' E 011°14'0 0.0
2014-Oct-31 04:33N 64°52' E 011°14'0 0.0
2014-Oct-31 03:33N 64°52' E 011°14'0 0.0
2014-Oct-31 02:33N 64°52' E 011°14'0 0.0
2014-Oct-31 01:33N 64°52' E 011°14'0 0.0
2014-Oct-31 00:33N 64°52' E 011°14'0 0.0
2014-Oct-30 23:33N 64°52' E 011°14'0 0.0
2014-Oct-30 22:33N 64°52' E 011°14'0 0.0
2014-Oct-30 21:33N 64°52' E 011°14'0 0.0
2014-Oct-30 20:33N 64°52' E 011°14'0 0.0
2014-Oct-30 19:33N 64°52' E 011°14'0 0.0
2014-Oct-30 18:33N 64°52' E 011°14'0 0.0
2014-Oct-30 17:33N 64°52' E 011°14'0 0.0
2014-Oct-30 16:33N 64°52' E 011°14'0 0.0
2014-Oct-30 15:33N 64°52' E 011°14'0 0.0
2014-Oct-30 14:33N 64°52' E 011°14'0 0.0
2014-Oct-30 13:33N 64°52' E 011°14'0 0.0
2014-Oct-30 12:33N 64°52' E 011°14'0 0.1
2014-Oct-30 11:34N 64°51' E 011°14'8 8.1
2014-Oct-30 10:33N 64°57' E 011°28'8 8.2
2014-Oct-30 09:33N 65°02' E 011°43'11 8.8
2014-Oct-30 08:19N 65°12' E 011°53'71 3.0
2014-Oct-29 08:25N 66°18' E 012°56'8 9.0
2014-Oct-29 07:33N 66°26' E 012°59'6 0.3
2014-Oct-28 09:25N 66°32' E 012°58'8 9.6
2014-Oct-28 08:33N 66°23' E 012°58'11 0.8
2014-Oct-27 18:17N 66°14' E 012°42'0 0.0
2014-Oct-27 17:33N 66°14' E 012°42'3 0.1
2014-Oct-26 12:07N 66°12' E 012°39'5 8.5
2014-Oct-26 11:32N 66°17' E 012°39'8 7.9
2014-Oct-26 10:33N 66°24' E 012°49'9 7.8
2014-Oct-26 09:26N 66°32' E 012°55'33 2.2
2014-Oct-25 18:29N 67°00' E 013°40'8 8.9
2014-Oct-25 17:33N 67°05' E 013°57'9 8.7
2014-Oct-25 16:33N 67°13' E 014°08'9 8.6
2014-Oct-25 15:33N 67°20' E 014°20'9 8.6
2014-Oct-25 14:33N 67°27' E 014°32'  
2014-Oct-22 00:33N 67°29' E 014°36'9 9.1
2014-Oct-21 23:33N 67°21' E 014°24'9 9.4
2014-Oct-21 22:33N 67°13' E 014°11'47 9.0
2014-Oct-21 17:21N 66°36' E 012°59'7 9.1
2014-Oct-21 16:32N 66°29' E 012°50'7 6.9
2014-Oct-21 15:34N 66°23' E 012°44'  

Dump ship's entire track history